Time;durP1;ratioP1;P1;durP2;ratioP2;P2;SDS_P1;SDS_P2;PMS_P1;PMS_P2;Temp;Humidity;BMP_temperature;BMP_pressure;BME280_temperature;BME280_humidity;BME280_pressure;Samples;Min_cycle;Max_cycle;Signal;HPM_P1;HPM_P2
2024/01/07 00:02:24;;;;;;;;;;;;;;;;;;5022660;28;58802;-73
2024/01/07 00:04:49;;;;;;;;;;;;;;;;;;5023341;28;58622;-75
2024/01/07 00:07:14;;;;;;;;;;;;;;;;;;5023869;28;59669;-75
2024/01/07 00:09:39;;;;;;;;;;;;;;;;;;5022994;28;58639;-75
2024/01/07 00:12:04;;;;;;;;;;;;;;;;;;5023770;28;60546;-74
2024/01/07 00:14:29;;;;;;;;;;;;;;;;;;5021946;28;58826;-74
2024/01/07 00:16:54;;;;;;;;;;;;;;;;;;5023933;27;58604;-76
2024/01/07 00:19:19;;;;;;;;;;;;;;;;;;5024242;28;58852;-73
2024/01/07 00:21:44;;;;;;;;;;;;;;;;;;5023701;28;58777;-73
2024/01/07 00:24:09;;;;;;;;;;;;;;;;;;5021418;28;59470;-74
2024/01/07 00:26:35;;;;;;;;;;;;;;;;;;5021949;28;59832;-75
2024/01/07 00:29:00;;;;;;;;;;;;;;;;;;5022149;28;59124;-73
2024/01/07 00:31:25;;;;;;;;;;;;;;;;;;5023884;28;58482;-73
2024/01/07 00:33:50;;;;;;;;;;;;;;;;;;5022174;28;59759;-74
2024/01/07 00:36:15;;;;;;;;;;;;;;;;;;5021915;28;58770;-74
2024/01/07 00:38:40;;;;;;;;;;;;;;;;;;5023369;28;60382;-75
2024/01/07 00:41:05;;;;;;;;;;;;;;;;;;5024110;28;60097;-71
2024/01/07 00:43:30;;;;;;;;;;;;;;;;;;5023198;28;59470;-76
2024/01/07 00:45:55;;;;;;;;;;;;;;;;;;5023430;28;59008;-75
2024/01/07 00:48:20;;;;;;;;;;;;;;;;;;5021837;28;59167;-76
2024/01/07 00:50:45;;;;;;;;;;;;;;;;;;5023430;27;59260;-75
2024/01/07 00:53:10;;;;;;;;;;;;;;;;;;5023115;28;59928;-75
2024/01/07 00:55:36;;;;;;;;;;;;;;;;;;5022629;28;58406;-74
2024/01/07 00:58:01;;;;;;;;;;;;;;;;;;5024605;28;59354;-77
2024/01/07 01:00:27;;;;;;;;;;;;;;;;;;5022685;28;59890;-72
2024/01/07 01:02:52;;;;;;;;;;;;;;;;;;5023977;27;58483;-69
2024/01/07 01:05:17;;;;;;;;;;;;;;;;;;5021376;28;59956;-72
2024/01/07 01:07:42;;;;;;;;;;;;;;;;;;5023982;27;59045;-69
2024/01/07 01:10:07;;;;;;;;;;;;;;;;;;5024438;28;58831;-70
2024/01/07 01:12:32;;;;;;;;;;;;;;;;;;5022397;28;58939;-71
2024/01/07 01:14:57;;;;;;;;;;;;;;;;;;5023284;27;59705;-69
2024/01/07 01:17:22;;;;;;;;;;;;;;;;;;5022577;28;59201;-70
2024/01/07 01:19:48;;;;;;;;;;;;;;;;;;5022372;28;59880;-68
2024/01/07 01:22:13;;;;;;;;;;;;;;;;;;5022003;28;58858;-69
2024/01/07 01:24:38;;;;;;;;;;;;;;;;;;5022010;28;60406;-69
2024/01/07 01:27:03;;;;;;;;;;;;;;;;;;5022801;28;58740;-70
2024/01/07 01:29:28;;;;;;;;;;;;;;;;;;5020360;28;59708;-69
2024/01/07 01:31:53;;;;;;;;;;;;;;;;;;5020666;28;59242;-69
2024/01/07 01:34:18;;;;;;;;;;;;;;;;;;5023167;28;58268;-68
2024/01/07 01:36:43;;;;;;;;;;;;;;;;;;5022460;28;59506;-69
2024/01/07 01:39:08;;;;;;;;;;;;;;;;;;5023086;28;58727;-72
2024/01/07 01:41:33;;;;;;;;;;;;;;;;;;5022014;28;58304;-70
2024/01/07 01:43:58;;;;;;;;;;;;;;;;;;5021399;28;59502;-76
2024/01/07 01:46:23;;;;;;;;;;;;;;;;;;5021863;28;58914;-72
2024/01/07 01:48:49;;;;;;;;;;;;;;;;;;5023661;28;59265;-69
2024/01/07 01:51:14;;;;;;;;;;;;;;;;;;5023117;28;58889;-70
2024/01/07 01:53:39;;;;;;;;;;;;;;;;;;5020523;28;58970;-79
2024/01/07 01:56:04;;;;;;;;;;;;;;;;;;5022447;28;60235;-73
2024/01/07 01:58:29;;;;;;;;;;;;;;;;;;5021561;28;59366;-71
2024/01/07 02:00:54;;;;;;;;;;;;;;;;;;5021624;28;58612;-70
2024/01/07 02:03:20;;;;;;;;;;;;;;;;;;5023331;28;59100;-71
2024/01/07 02:05:45;;;;;;;;;;;;;;;;;;5022458;28;59043;-70
2024/01/07 02:08:10;;;;;;;;;;;;;;;;;;5021540;28;58653;-70
2024/01/07 02:10:36;;;;;;;;;;;;;;;;;;5020793;28;59634;-72
2024/01/07 02:13:01;;;;;;;;;;;;;;;;;;5023831;28;58484;-73
2024/01/07 02:15:26;;;;;;;;;;;;;;;;;;5022128;28;59963;-69
2024/01/07 02:17:51;;;;;;;;;;;;;;;;;;5021653;28;59936;-70
2024/01/07 02:20:16;;;;;;;;;;;;;;;;;;5022495;28;58762;-71
2024/01/07 02:22:41;;;;;;;;;;;;;;;;;;5021876;28;59430;-71
2024/01/07 02:25:08;;;;;;;;;;;;;;;;;;5021182;28;59725;-72
2024/01/07 02:27:33;;;;;;;;;;;;;;;;;;5021751;28;58392;-70
2024/01/07 02:29:58;;;;;;;;;;;;;;;;;;5022250;28;59399;-75
2024/01/07 02:32:23;;;;;;;;;;;;;;;;;;5019968;28;58566;-75
2024/01/07 02:34:48;;;;;;;;;;;;;;;;;;5020858;28;60152;-75
2024/01/07 02:37:13;;;;;;;;;;;;;;;;;;5021312;28;58405;-75
2024/01/07 02:39:38;;;;;;;;;;;;;;;;;;5020807;28;59627;-75
2024/01/07 02:42:03;;;;;;;;;;;;;;;;;;5022139;28;59518;-75
2024/01/07 02:44:29;;;;;;;;;;;;;;;;;;5019004;28;58970;-75
2024/01/07 02:46:54;;;;;;;;;;;;;;;;;;5022846;28;58824;-75
2024/01/07 02:49:19;;;;;;;;;;;;;;;;;;5022257;28;59521;-75
2024/01/07 02:51:48;;;;;;;;;;;;;;;;;;5022030;28;59234;-75
2024/01/07 02:54:14;;;;;;;;;;;;;;;;;;5023563;28;59596;-75
2024/01/07 02:56:39;;;;;;;;;;;;;;;;;;5024281;28;60073;-75
2024/01/07 02:59:04;;;;;;;;;;;;;;;;;;5022765;28;58952;-75
2024/01/07 03:01:29;;;;;;;;;;;;;;;;;;5025982;28;59557;-75
2024/01/07 03:03:54;;;;;;;;;;;;;;;;;;5022052;28;59665;-76
2024/01/07 03:06:19;;;;;;;;;;;;;;;;;;5025051;28;59178;-75
2024/01/07 03:08:44;;;;;;;;;;;;;;;;;;5023324;28;60737;-75
2024/01/07 03:11:09;;;;;;;;;;;;;;;;;;5024072;28;59120;-75
2024/01/07 03:13:34;;;;;;;;;;;;;;;;;;5023857;27;59324;-76
2024/01/07 03:16:00;;;;;;;;;;;;;;;;;;5025076;28;59285;-75
2024/01/07 03:18:25;;;;;;;;;;;;;;;;;;5024728;28;58585;-75
2024/01/07 03:20:50;;;;;;;;;;;;;;;;;;5024532;28;60482;-75
2024/01/07 03:23:15;;;;;;;;;;;;;;;;;;5022360;28;58937;-75
2024/01/07 03:25:40;;;;;;;;;;;;;;;;;;5024946;28;59565;-75
2024/01/07 03:28:05;;;;;;;;;;;;;;;;;;5023659;28;59770;-75
2024/01/07 03:30:30;;;;;;;;;;;;;;;;;;5024113;27;59172;-70
2024/01/07 03:32:55;;;;;;;;;;;;;;;;;;5023094;28;58460;-70
2024/01/07 03:35:21;;;;;;;;;;;;;;;;;;5022991;28;59759;-71
2024/01/07 03:37:46;;;;;;;;;;;;;;;;;;5022578;27;58688;-72
2024/01/07 03:40:11;;;;;;;;;;;;;;;;;;5024765;28;59464;-75
2024/01/07 03:42:37;;;;;;;;;;;;;;;;;;5022667;28;58842;-76
2024/01/07 03:45:02;;;;;;;;;;;;;;;;;;5024087;28;58520;-75
2024/01/07 03:47:27;;;;;;;;;;;;;;;;;;5023855;28;59481;-75
2024/01/07 03:49:52;;;;;;;;;;;;;;;;;;5023109;28;58875;-76
2024/01/07 03:52:17;;;;;;;;;;;;;;;;;;5023753;28;58613;-75
2024/01/07 03:54:42;;;;;;;;;;;;;;;;;;5024329;28;59756;-75
2024/01/07 03:57:07;;;;;;;;;;;;;;;;;;5023181;28;58756;-75
2024/01/07 03:59:32;;;;;;;;;;;;;;;;;;5023688;28;59497;-75
2024/01/07 04:01:57;;;;;;;;;;;;;;;;;;5022957;27;58416;-75
2024/01/07 04:04:22;;;;;;;;;;;;;;;;;;5021287;27;58713;-75
2024/01/07 04:06:48;;;;;;;;;;;;;;;;;;5023379;28;59313;-75
2024/01/07 04:09:13;;;;;;;;;;;;;;;;;;5022289;28;60804;-76
2024/01/07 04:11:38;;;;;;;;;;;;;;;;;;5023532;28;58468;-75
2024/01/07 04:14:03;;;;;;;;;;;;;;;;;;5023569;28;59273;-76
2024/01/07 04:16:28;;;;;;;;;;;;;;;;;;5022996;28;58847;-75
2024/01/07 04:18:53;;;;;;;;;;;;;;;;;;5022005;28;59473;-75
2024/01/07 04:21:18;;;;;;;;;;;;;;;;;;5021639;27;59844;-76
2024/01/07 04:23:43;;;;;;;;;;;;;;;;;;5024664;28;59648;-76
2024/01/07 04:26:08;;;;;;;;;;;;;;;;;;5022014;28;59540;-75
2024/01/07 04:28:33;;;;;;;;;;;;;;;;;;5023595;28;59012;-75
2024/01/07 04:30:58;;;;;;;;;;;;;;;;;;5023784;28;59307;-76
2024/01/07 04:33:24;;;;;;;;;;;;;;;;;;5023668;28;59649;-75
2024/01/07 04:35:49;;;;;;;;;;;;;;;;;;5023301;28;59252;-75
2024/01/07 04:38:14;;;;;;;;;;;;;;;;;;5024472;28;58840;-75
2024/01/07 04:40:39;;;;;;;;;;;;;;;;;;5023766;28;59165;-70
2024/01/07 04:43:04;;;;;;;;;;;;;;;;;;5024754;28;58701;-71
2024/01/07 04:45:29;;;;;;;;;;;;;;;;;;5024135;27;59461;-70
2024/01/07 04:47:54;;;;;;;;;;;;;;;;;;5021763;28;59859;-72
2024/01/07 04:50:19;;;;;;;;;;;;;;;;;;5024164;28;58831;-75
2024/01/07 04:52:44;;;;;;;;;;;;;;;;;;5023865;28;59536;-75
2024/01/07 04:55:10;;;;;;;;;;;;;;;;;;5021672;28;59986;-76
2024/01/07 04:57:35;;;;;;;;;;;;;;;;;;5024443;28;58417;-75
2024/01/07 05:00:00;;;;;;;;;;;;;;;;;;5022501;28;59294;-76
2024/01/07 05:02:25;;;;;;;;;;;;;;;;;;5023669;27;59002;-76
2024/01/07 05:04:50;;;;;;;;;;;;;;;;;;5022260;28;59329;-76
2024/01/07 05:07:16;;;;;;;;;;;;;;;;;;5023340;28;58732;-75
2024/01/07 05:09:41;;;;;;;;;;;;;;;;;;5023316;28;58517;-75
2024/01/07 05:12:06;;;;;;;;;;;;;;;;;;5023188;28;59457;-75
2024/01/07 05:14:31;;;;;;;;;;;;;;;;;;5020531;28;59393;-75
2024/01/07 05:16:56;;;;;;;;;;;;;;;;;;5023169;28;58519;-75
2024/01/07 05:19:21;;;;;;;;;;;;;;;;;;5024500;28;59816;-75
2024/01/07 05:21:46;;;;;;;;;;;;;;;;;;5022691;28;58896;-76
2024/01/07 05:24:11;;;;;;;;;;;;;;;;;;5022820;28;59655;-75
2024/01/07 05:26:36;;;;;;;;;;;;;;;;;;5021693;28;58939;-76
2024/01/07 05:29:01;;;;;;;;;;;;;;;;;;5020807;28;58605;-75
2024/01/07 05:31:26;;;;;;;;;;;;;;;;;;5022957;28;59623;-75
2024/01/07 05:33:51;;;;;;;;;;;;;;;;;;5023143;28;58695;-75
2024/01/07 05:36:17;;;;;;;;;;;;;;;;;;5022097;28;59395;-75
2024/01/07 05:38:42;;;;;;;;;;;;;;;;;;5023256;27;59629;-75
2024/01/07 05:41:07;;;;;;;;;;;;;;;;;;5022845;27;59150;-76
2024/01/07 05:43:32;;;;;;;;;;;;;;;;;;5023066;28;59628;-75
2024/01/07 05:45:57;;;;;;;;;;;;;;;;;;5021814;28;60088;-75
2024/01/07 05:48:22;;;;;;;;;;;;;;;;;;5023984;28;59593;-75
2024/01/07 05:50:47;;;;;;;;;;;;;;;;;;5022637;28;60538;-75
2024/01/07 05:53:12;;;;;;;;;;;;;;;;;;5023303;28;58993;-75
2024/01/07 05:55:37;;;;;;;;;;;;;;;;;;5023535;28;58882;-75
2024/01/07 05:58:02;;;;;;;;;;;;;;;;;;5023673;28;58336;-75
2024/01/07 06:00:27;;;;;;;;;;;;;;;;;;5022224;28;59664;-70
2024/01/07 06:02:52;;;;;;;;;;;;;;;;;;5022002;27;58540;-69
2024/01/07 06:05:17;;;;;;;;;;;;;;;;;;5022781;28;58925;-70
2024/01/07 06:07:42;;;;;;;;;;;;;;;;;;5024303;28;58503;-72
2024/01/07 06:10:07;;;;;;;;;;;;;;;;;;5024248;28;59465;-69
2024/01/07 06:12:33;;;;;;;;;;;;;;;;;;5022763;28;58718;-73
2024/01/07 06:14:58;;;;;;;;;;;;;;;;;;5023071;28;58777;-71
2024/01/07 06:17:23;;;;;;;;;;;;;;;;;;5023302;27;59148;-70
2024/01/07 06:19:48;;;;;;;;;;;;;;;;;;5021070;28;59796;-70
2024/01/07 06:22:14;;;;;;;;;;;;;;;;;;5024816;28;58845;-71
2024/01/07 06:24:39;;;;;;;;;;;;;;;;;;5021743;28;59373;-69
2024/01/07 06:27:04;;;;;;;;;;;;;;;;;;5023263;28;58797;-70
2024/01/07 06:29:29;;;;;;;;;;;;;;;;;;5022436;28;59705;-69
2024/01/07 06:31:54;;;;;;;;;;;;;;;;;;5021131;28;58866;-70
2024/01/07 06:34:19;;;;;;;;;;;;;;;;;;5023083;28;58763;-69
2024/01/07 06:36:44;;;;;;;;;;;;;;;;;;5023738;28;59222;-70
2024/01/07 06:39:09;;;;;;;;;;;;;;;;;;5022144;27;58857;-69
2024/01/07 06:41:34;;;;;;;;;;;;;;;;;;5023726;28;59354;-70
2024/01/07 06:43:59;;;;;;;;;;;;;;;;;;5022325;28;60236;-70
2024/01/07 06:46:25;;;;;;;;;;;;;;;;;;5022284;28;58404;-69
2024/01/07 06:48:50;;;;;;;;;;;;;;;;;;5024470;28;59380;-70
2024/01/07 06:51:15;;;;;;;;;;;;;;;;;;5021336;28;60515;-70
2024/01/07 06:53:40;;;;;;;;;;;;;;;;;;5021168;28;59389;-69
2024/01/07 06:56:05;;;;;;;;;;;;;;;;;;5023057;28;59471;-69
2024/01/07 06:58:32;;;;;;;;;;;;;;;;;;5021101;28;60106;-71
2024/01/07 07:00:57;;;;;;;;;;;;;;;;;;5023966;28;58873;-70
2024/01/07 07:03:22;;;;;;;;;;;;;;;;;;5022857;28;59010;-72
2024/01/07 07:05:47;;;;;;;;;;;;;;;;;;5020423;28;58647;-71
2024/01/07 07:08:12;;;;;;;;;;;;;;;;;;5020753;28;61314;-71
2024/01/07 07:10:37;;;;;;;;;;;;;;;;;;5020919;28;59033;-76
2024/01/07 07:13:02;;;;;;;;;;;;;;;;;;5021662;28;58831;-76
2024/01/07 07:15:28;;;;;;;;;;;;;;;;;;5023287;28;60578;-75
2024/01/07 07:17:53;;;;;;;;;;;;;;;;;;5020781;28;59024;-76
2024/01/07 07:20:19;;;;;;;;;;;;;;;;;;5023264;28;58411;-76
2024/01/07 07:22:44;;;;;;;;;;;;;;;;;;5019831;28;61538;-75
2024/01/07 07:25:09;;;;;;;;;;;;;;;;;;5023204;28;59872;-75
2024/01/07 07:27:34;;;;;;;;;;;;;;;;;;5023637;27;58518;-76
2024/01/07 07:29:59;;;;;;;;;;;;;;;;;;5021491;28;59218;-75
2024/01/07 07:32:24;;;;;;;;;;;;;;;;;;5023161;28;59051;-75
2024/01/07 07:34:50;;;;;;;;;;;;;;;;;;5019465;28;61487;-76
2024/01/07 07:37:15;;;;;;;;;;;;;;;;;;5021443;28;58835;-75
2024/01/07 07:39:40;;;;;;;;;;;;;;;;;;5020093;28;59486;-75
2024/01/07 07:42:05;;;;;;;;;;;;;;;;;;5024951;28;60022;-75
2024/01/07 07:44:30;;;;;;;;;;;;;;;;;;5023220;27;58992;-75
2024/01/07 07:46:55;;;;;;;;;;;;;;;;;;5025659;28;58387;-75
2024/01/07 07:49:20;;;;;;;;;;;;;;;;;;5026160;28;59752;-75
2024/01/07 07:51:45;;;;;;;;;;;;;;;;;;5025382;28;58705;-76
2024/01/07 07:54:10;;;;;;;;;;;;;;;;;;5024224;28;58440;-75
2024/01/07 07:56:36;;;;;;;;;;;;;;;;;;5025127;27;59242;-75
2024/01/07 07:59:01;;;;;;;;;;;;;;;;;;5023010;28;58908;-75
2024/01/07 08:01:26;;;;;;;;;;;;;;;;;;5023821;27;58695;-75
2024/01/07 08:03:51;;;;;;;;;;;;;;;;;;5024442;28;59518;-75
2024/01/07 08:06:16;;;;;;;;;;;;;;;;;;5025138;28;58363;-75
2024/01/07 08:08:41;;;;;;;;;;;;;;;;;;5024179;28;59230;-75
2024/01/07 08:11:08;;;;;;;;;;;;;;;;;;5023200;28;59351;-75
2024/01/07 08:13:33;;;;;;;;;;;;;;;;;;5023162;27;59558;-76
2024/01/07 08:15:58;;;;;;;;;;;;;;;;;;5025207;28;59122;-75
2024/01/07 08:18:24;;;;;;;;;;;;;;;;;;5025483;28;58350;-75
2024/01/07 08:20:49;;;;;;;;;;;;;;;;;;5022506;28;59232;-71
2024/01/07 08:23:15;;;;;;;;;;;;;;;;;;5024100;28;59542;-73
2024/01/07 08:25:41;;;;;;;;;;;;;;;;;;5020896;28;58417;-72
2024/01/07 08:28:06;;;;;;;;;;;;;;;;;;5024559;28;59498;-73
2024/01/07 08:30:31;;;;;;;;;;;;;;;;;;5020663;28;59598;-75
2024/01/07 08:32:56;;;;;;;;;;;;;;;;;;5025157;28;58539;-74
2024/01/07 08:35:22;;;;;;;;;;;;;;;;;;5024664;28;58932;-80
2024/01/07 08:37:47;;;;;;;;;;;;;;;;;;5023317;28;58999;-79
2024/01/07 08:40:13;;;;;;;;;;;;;;;;;;5024182;28;61177;-79
2024/01/07 08:42:38;;;;;;;;;;;;;;;;;;5023515;28;58774;-81
2024/01/07 08:45:04;;;;;;;;;;;;;;;;;;5021481;28;58673;-80
2024/01/07 08:47:31;;;;;;;;;;;;;;;;;;5024222;28;59465;-75
2024/01/07 08:49:56;;;;;;;;;;;;;;;;;;5020396;28;58878;-75
2024/01/07 08:52:21;;;;;;;;;;;;;;;;;;5024936;28;58779;-76
2024/01/07 08:54:46;;;;;;;;;;;;;;;;;;5022391;28;59564;-72
2024/01/07 08:57:11;;;;;;;;;;;;;;;;;;5024000;28;58457;-71
2024/01/07 08:59:36;;;;;;;;;;;;;;;;;;5023596;28;59644;-70
2024/01/07 09:02:02;;;;;;;;;;;;;;;;;;5022027;28;59968;-70
2024/01/07 09:04:27;;;;;;;;;;;;;;;;;;5024326;28;59139;-70
2024/01/07 09:06:52;;;;;;;;;;;;;;;;;;5025233;28;60364;-71
2024/01/07 09:09:17;;;;;;;;;;;;;;;;;;5023380;28;59655;-71
2024/01/07 09:11:42;;;;;;;;;;;;;;;;;;5024235;28;58892;-70
2024/01/07 09:14:08;;;;;;;;;;;;;;;;;;5022385;28;58648;-70
2024/01/07 09:16:33;;;;;;;;;;;;;;;;;;5023535;28;58880;-70
2024/01/07 09:18:58;;;;;;;;;;;;;;;;;;5021079;28;58550;-71
2024/01/07 09:21:23;;;;;;;;;;;;;;;;;;5023090;28;59358;-71
2024/01/07 09:23:48;;;;;;;;;;;;;;;;;;5024471;28;59515;-68
2024/01/07 09:26:13;;;;;;;;;;;;;;;;;;5020798;28;60520;-68
2024/01/07 09:28:38;;;;;;;;;;;;;;;;;;5022093;28;58993;-71
2024/01/07 09:31:03;;;;;;;;;;;;;;;;;;5024723;28;58781;-70
2024/01/07 09:33:28;;;;;;;;;;;;;;;;;;5022497;28;60739;-69
2024/01/07 09:35:56;;;;;;;;;;;;;;;;;;5021806;28;59996;-70
2024/01/07 09:38:21;;;;;;;;;;;;;;;;;;5022237;28;60717;-73
2024/01/07 09:40:47;;;;;;;;;;;;;;;;;;5020623;28;59091;-70
2024/01/07 09:43:12;;;;;;;;;;;;;;;;;;5021688;28;59839;-70
2024/01/07 09:45:37;;;;;;;;;;;;;;;;;;5021819;28;60354;-74
2024/01/07 09:48:02;;;;;;;;;;;;;;;;;;5020976;27;59716;-71
2024/01/07 09:50:27;;;;;;;;;;;;;;;;;;5022802;28;59393;-67
2024/01/07 09:52:52;;;;;;;;;;;;;;;;;;5022769;28;59408;-66
2024/01/07 09:55:17;;;;;;;;;;;;;;;;;;5023010;28;58884;-67
2024/01/07 09:57:42;;;;;;;;;;;;;;;;;;5023704;28;58538;-67
2024/01/07 10:00:07;;;;;;;;;;;;;;;;;;5022430;28;59619;-67
2024/01/07 10:02:32;;;;;;;;;;;;;;;;;;5021662;28;58559;-68
2024/01/07 10:04:58;;;;;;;;;;;;;;;;;;5021230;28;59812;-68
2024/01/07 10:07:23;;;;;;;;;;;;;;;;;;5022030;28;58936;-68
2024/01/07 10:09:48;;;;;;;;;;;;;;;;;;5024769;28;58368;-68
2024/01/07 10:12:13;;;;;;;;;;;;;;;;;;5026833;28;59343;-68
2024/01/07 10:14:40;;;;;;;;;;;;;;;;;;5022933;27;58981;-66
2024/01/07 10:17:05;;;;;;;;;;;;;;;;;;5024501;28;58632;-68
2024/01/07 10:19:30;;;;;;;;;;;;;;;;;;5020485;28;59486;-75
2024/01/07 10:21:55;;;;;;;;;;;;;;;;;;5024532;28;58849;-68
2024/01/07 10:24:20;;;;;;;;;;;;;;;;;;5019722;28;59163;-73
2024/01/07 10:26:45;;;;;;;;;;;;;;;;;;5021704;28;58669;-70
2024/01/07 10:29:10;;;;;;;;;;;;;;;;;;5022001;28;58342;-75
2024/01/07 10:31:35;;;;;;;;;;;;;;;;;;5024375;28;59448;-75
2024/01/07 10:34:01;;;;;;;;;;;;;;;;;;5021274;28;58770;-74
2024/01/07 10:36:26;;;;;;;;;;;;;;;;;;5021347;28;58524;-72
2024/01/07 10:38:51;;;;;;;;;;;;;;;;;;5021944;28;59274;-72
2024/01/07 10:41:16;;;;;;;;;;;;;;;;;;5022137;28;58650;-72
2024/01/07 10:43:42;;;;;;;;;;;;;;;;;;5019992;28;59472;-72
2024/01/07 10:46:07;;;;;;;;;;;;;;;;;;5023204;28;58556;-73
2024/01/07 10:48:32;;;;;;;;;;;;;;;;;;5019150;28;59491;-73
2024/01/07 10:50:57;;;;;;;;;;;;;;;;;;5024200;28;60173;-72
2024/01/07 10:53:23;;;;;;;;;;;;;;;;;;5019250;28;58860;-72
2024/01/07 10:55:48;;;;;;;;;;;;;;;;;;5023719;28;58816;-72
2024/01/07 10:58:13;;;;;;;;;;;;;;;;;;5018924;28;60252;-72
2024/01/07 11:00:39;;;;;;;;;;;;;;;;;;5022999;28;59065;-73
2024/01/07 11:03:04;;;;;;;;;;;;;;;;;;5023117;28;60286;-72
2024/01/07 11:05:29;;;;;;;;;;;;;;;;;;5018789;28;59137;-72
2024/01/07 11:07:54;;;;;;;;;;;;;;;;;;5022203;28;58695;-72
2024/01/07 11:10:19;;;;;;;;;;;;;;;;;;5020931;28;60387;-72
2024/01/07 11:12:44;;;;;;;;;;;;;;;;;;5022210;28;59649;-71
2024/01/07 11:15:10;;;;;;;;;;;;;;;;;;5024668;28;58998;-72
2024/01/07 11:17:35;;;;;;;;;;;;;;;;;;5025385;28;60293;-72
2024/01/07 11:20:00;;;;;;;;;;;;;;;;;;5023816;28;60620;-71
2024/01/07 11:22:29;;;;;;;;;;;;;;;;;;5027484;27;58599;-71
2024/01/07 11:24:54;;;;;;;;;;;;;;;;;;5025228;28;59053;-71
2024/01/07 11:27:19;;;;;;;;;;;;;;;;;;5024725;28;58696;-72
2024/01/07 11:29:44;;;;;;;;;;;;;;;;;;5024747;28;60195;-71
2024/01/07 11:32:09;;;;;;;;;;;;;;;;;;5025246;27;59824;-72
2024/01/07 11:34:34;;;;;;;;;;;;;;;;;;5024787;27;58830;-72
2024/01/07 11:36:59;;;;;;;;;;;;;;;;;;5027393;28;59032;-72
2024/01/07 11:39:24;;;;;;;;;;;;;;;;;;5023338;27;59002;-71
2024/01/07 11:41:50;;;;;;;;;;;;;;;;;;5026213;27;58970;-71
2024/01/07 11:44:15;;;;;;;;;;;;;;;;;;5022169;28;60717;-72
2024/01/07 11:46:41;;;;;;;;;;;;;;;;;;5023613;28;58922;-72
2024/01/07 11:49:06;;;;;;;;;;;;;;;;;;5024600;28;59556;-72
2024/01/07 11:51:31;;;;;;;;;;;;;;;;;;5024015;28;59160;-72
2024/01/07 11:53:56;;;;;;;;;;;;;;;;;;5026200;28;59145;-72
2024/01/07 11:56:22;;;;;;;;;;;;;;;;;;5025614;28;59663;-71
2024/01/07 11:58:47;;;;;;;;;;;;;;;;;;5022422;28;60104;-69
2024/01/07 12:01:12;;;;;;;;;;;;;;;;;;5026354;28;58627;-73
2024/01/07 12:03:37;;;;;;;;;;;;;;;;;;5023038;27;60375;-70
2024/01/07 12:06:02;;;;;;;;;;;;;;;;;;5023496;28;59772;-69
2024/01/07 12:08:27;;;;;;;;;;;;;;;;;;5023810;27;59692;-71
2024/01/07 12:10:52;;;;;;;;;;;;;;;;;;5024305;28;58932;-75
2024/01/07 12:13:17;;;;;;;;;;;;;;;;;;5025080;28;58825;-72
2024/01/07 12:15:43;;;;;;;;;;;;;;;;;;5025590;27;59729;-74
2024/01/07 12:18:08;;;;;;;;;;;;;;;;;;5023845;28;59538;-75
2024/01/07 12:20:33;;;;;;;;;;;;;;;;;;5025598;28;58605;-75
2024/01/07 12:22:59;;;;;;;;;;;;;;;;;;5023595;27;59674;-71
2024/01/07 12:25:26;;;;;;;;;;;;;;;;;;5022175;28;79901;-76
2024/01/07 12:27:52;;;;;;;;;;;;;;;;;;5021505;28;58862;-72
2024/01/07 12:30:17;;;;;;;;;;;;;;;;;;5021465;28;58936;-71
2024/01/07 12:32:43;;;;;;;;;;;;;;;;;;5023806;28;58727;-74
2024/01/07 12:35:08;;;;;;;;;;;;;;;;;;5024040;27;60303;-70
2024/01/07 12:37:33;;;;;;;;;;;;;;;;;;5023889;28;59976;-72
2024/01/07 12:39:58;;;;;;;;;;;;;;;;;;5024548;28;58752;-71
2024/01/07 12:42:24;;;;;;;;;;;;;;;;;;5023225;28;60359;-72
2024/01/07 12:44:49;;;;;;;;;;;;;;;;;;5025171;27;58986;-71
2024/01/07 12:47:14;;;;;;;;;;;;;;;;;;5023672;28;58771;-72
2024/01/07 12:49:39;;;;;;;;;;;;;;;;;;5021473;28;59349;-73
2024/01/07 12:52:04;;;;;;;;;;;;;;;;;;5026118;28;58768;-73
2024/01/07 12:54:29;;;;;;;;;;;;;;;;;;5022685;28;60661;-73
2024/01/07 12:56:54;;;;;;;;;;;;;;;;;;5020972;28;59581;-74
2024/01/07 12:59:19;;;;;;;;;;;;;;;;;;5024535;28;58361;-73
2024/01/07 13:01:44;;;;;;;;;;;;;;;;;;5023614;28;59706;-73
2024/01/07 13:04:09;;;;;;;;;;;;;;;;;;5022968;28;61021;-73
2024/01/07 13:06:35;;;;;;;;;;;;;;;;;;5024877;28;59490;-73
2024/01/07 13:09:00;;;;;;;;;;;;;;;;;;5023906;28;58664;-73
2024/01/07 13:11:25;;;;;;;;;;;;;;;;;;5024395;28;58982;-73
2024/01/07 13:13:50;;;;;;;;;;;;;;;;;;5023967;27;58669;-74
2024/01/07 13:16:15;;;;;;;;;;;;;;;;;;5024033;28;59195;-73
2024/01/07 13:18:40;;;;;;;;;;;;;;;;;;5023937;28;58713;-73
2024/01/07 13:21:06;;;;;;;;;;;;;;;;;;5023316;28;59764;-73
2024/01/07 13:23:32;;;;;;;;;;;;;;;;;;5022429;28;59297;-73
2024/01/07 13:25:57;;;;;;;;;;;;;;;;;;5023532;27;58874;-73
2024/01/07 13:28:22;;;;;;;;;;;;;;;;;;5024585;28;58771;-74
2024/01/07 13:30:47;;;;;;;;;;;;;;;;;;5024069;28;59468;-73
2024/01/07 13:33:13;;;;;;;;;;;;;;;;;;5023325;28;60740;-73
2024/01/07 13:35:38;;;;;;;;;;;;;;;;;;5022746;28;60025;-73
2024/01/07 13:38:03;;;;;;;;;;;;;;;;;;5022740;28;58760;-74
2024/01/07 13:40:28;;;;;;;;;;;;;;;;;;5024646;28;59163;-73
2024/01/07 13:42:53;;;;;;;;;;;;;;;;;;5020725;28;59884;-73
2024/01/07 13:45:22;;;;;;;;;;;;;;;;;;5023029;27;58438;-73
2024/01/07 13:47:48;;;;;;;;;;;;;;;;;;5024202;28;59642;-74
2024/01/07 13:50:13;;;;;;;;;;;;;;;;;;5020989;28;59632;-73
2024/01/07 13:52:38;;;;;;;;;;;;;;;;;;5024282;28;58700;-73
2024/01/07 13:55:03;;;;;;;;;;;;;;;;;;5021588;28;58596;-73
2024/01/07 13:57:30;;;;;;;;;;;;;;;;;;5020781;28;58545;-74
2024/01/07 13:59:55;;;;;;;;;;;;;;;;;;5024696;28;59430;-74
2024/01/07 14:02:22;;;;;;;;;;;;;;;;;;5021687;28;59762;-73
2024/01/07 14:04:48;;;;;;;;;;;;;;;;;;5022227;28;58812;-73
2024/01/07 14:07:13;;;;;;;;;;;;;;;;;;5023448;28;59406;-74
2024/01/07 14:09:38;;;;;;;;;;;;;;;;;;5022422;28;59675;-70
2024/01/07 14:12:03;;;;;;;;;;;;;;;;;;5023289;28;58953;-71
2024/01/07 14:14:28;;;;;;;;;;;;;;;;;;5022577;28;60489;-74
2024/01/07 14:16:53;;;;;;;;;;;;;;;;;;5022677;28;58880;-71
2024/01/07 14:19:18;;;;;;;;;;;;;;;;;;5017559;28;58469;-75
2024/01/07 14:21:43;;;;;;;;;;;;;;;;;;5021200;27;58887;-71
2024/01/07 14:24:09;;;;;;;;;;;;;;;;;;5021895;28;58574;-71
2024/01/07 14:26:34;;;;;;;;;;;;;;;;;;5023040;28;59477;-71
2024/01/07 14:28:59;;;;;;;;;;;;;;;;;;5022037;28;59172;-71
2024/01/07 14:31:24;;;;;;;;;;;;;;;;;;5023894;27;59408;-71
2024/01/07 14:33:50;;;;;;;;;;;;;;;;;;5022708;28;59628;-72
2024/01/07 14:36:18;;;;;;;;;;;;;;;;;;5021942;28;58886;-70
2024/01/07 14:38:43;;;;;;;;;;;;;;;;;;5020792;27;59410;-71
2024/01/07 14:41:08;;;;;;;;;;;;;;;;;;5019829;28;58912;-72
2024/01/07 14:43:33;;;;;;;;;;;;;;;;;;5023253;28;58701;-71
2024/01/07 14:45:58;;;;;;;;;;;;;;;;;;5022916;28;59478;-71
2024/01/07 14:48:24;;;;;;;;;;;;;;;;;;5018840;28;60154;-73
2024/01/07 14:50:51;;;;;;;;;;;;;;;;;;5024628;28;58716;-71
2024/01/07 14:53:16;;;;;;;;;;;;;;;;;;5019903;28;60550;-71
2024/01/07 14:55:41;;;;;;;;;;;;;;;;;;5021742;28;59861;-71
2024/01/07 14:58:06;;;;;;;;;;;;;;;;;;5024293;28;58630;-72
2024/01/07 15:00:31;;;;;;;;;;;;;;;;;;5020133;28;59634;-71
2024/01/07 15:02:57;;;;;;;;;;;;;;;;;;5021381;28;58738;-70
2024/01/07 15:05:22;;;;;;;;;;;;;;;;;;5021924;28;60176;-72
2024/01/07 15:07:48;;;;;;;;;;;;;;;;;;5022863;28;58777;-70
2024/01/07 15:10:13;;;;;;;;;;;;;;;;;;5023628;28;58600;-71
2024/01/07 15:12:38;;;;;;;;;;;;;;;;;;5023225;28;59120;-72
2024/01/07 15:15:05;;;;;;;;;;;;;;;;;;5023144;27;59373;-71
2024/01/07 15:17:30;;;;;;;;;;;;;;;;;;5023422;28;59954;-73
2024/01/07 15:19:55;;;;;;;;;;;;;;;;;;5021762;28;59129;-73
2024/01/07 15:22:20;;;;;;;;;;;;;;;;;;5022375;28;59348;-75
2024/01/07 15:24:45;;;;;;;;;;;;;;;;;;5021543;27;59560;-74
2024/01/07 15:27:11;;;;;;;;;;;;;;;;;;5019183;28;59488;-74
2024/01/07 15:29:37;;;;;;;;;;;;;;;;;;5019553;28;59031;-73
2024/01/07 15:32:02;;;;;;;;;;;;;;;;;;5019703;28;59655;-73
2024/01/07 15:34:27;;;;;;;;;;;;;;;;;;5019952;28;59020;-75
2024/01/07 15:36:52;;;;;;;;;;;;;;;;;;5022985;28;58849;-75
2024/01/07 15:39:18;;;;;;;;;;;;;;;;;;5020280;28;60750;-74
2024/01/07 15:41:43;;;;;;;;;;;;;;;;;;5022421;28;58423;-75
2024/01/07 15:44:08;;;;;;;;;;;;;;;;;;5021343;28;59359;-76
2024/01/07 15:46:33;;;;;;;;;;;;;;;;;;5022502;28;60186;-75
2024/01/07 15:48:58;;;;;;;;;;;;;;;;;;5018346;28;58440;-76
2024/01/07 15:51:24;;;;;;;;;;;;;;;;;;5017768;28;59653;-75
2024/01/07 15:53:49;;;;;;;;;;;;;;;;;;5016911;28;59450;-74
2024/01/07 15:56:16;;;;;;;;;;;;;;;;;;5017391;28;58415;-72
2024/01/07 15:58:42;;;;;;;;;;;;;;;;;;5021031;28;59674;-73
2024/01/07 16:01:07;;;;;;;;;;;;;;;;;;5025859;28;59181;-73
2024/01/07 16:03:32;;;;;;;;;;;;;;;;;;5021804;27;59467;-73
2024/01/07 16:05:57;;;;;;;;;;;;;;;;;;5025290;27;59078;-72
2024/01/07 16:08:22;;;;;;;;;;;;;;;;;;5023748;28;60302;-72
2024/01/07 16:10:47;;;;;;;;;;;;;;;;;;5025775;28;60190;-72
2024/01/07 16:13:12;;;;;;;;;;;;;;;;;;5023410;28;58896;-73
2024/01/07 16:15:37;;;;;;;;;;;;;;;;;;5023602;28;58751;-73
2024/01/07 16:18:03;;;;;;;;;;;;;;;;;;5022942;27;60677;-71
2024/01/07 16:20:28;;;;;;;;;;;;;;;;;;5020772;28;58935;-70
2024/01/07 16:22:53;;;;;;;;;;;;;;;;;;5020325;28;59209;-72
2024/01/07 16:25:18;;;;;;;;;;;;;;;;;;5021878;28;58758;-72
2024/01/07 16:27:43;;;;;;;;;;;;;;;;;;5021852;27;58542;-72
2024/01/07 16:30:08;;;;;;;;;;;;;;;;;;5020716;28;60293;-70
2024/01/07 16:32:33;;;;;;;;;;;;;;;;;;5019767;28;59850;-71